Time;durP1;ratioP1;P1;durP2;ratioP2;P2;SDS_P1;SDS_P2;PMS_P1;PMS_P2;Temp;Humidity;BMP_temperature;BMP_pressure;BME280_temperature;BME280_humidity;BME280_pressure;Samples;Min_cycle;Max_cycle;Signal;HPM_P1;HPM_P2
2024/04/10 00:00:23;;;;;;;11.93;7.40;;;8.90;51.70;;;;;;5517963;25;20465;-63
2024/04/10 00:02:49;;;;;;;15.10;6.77;;;9.00;45.90;;;;;;5503314;26;20262;-63
2024/04/10 00:05:20;;;;;;;13.33;5.97;;;8.90;43.90;;;;;;5504616;25;20461;-63
2024/04/10 00:07:46;;;;;;;10.10;5.70;;;9.00;44.00;;;;;;5488396;26;20510;-63
2024/04/10 00:10:14;;;;;;;18.97;6.03;;;9.00;44.10;;;;;;5523379;26;20471;-64
2024/04/10 00:12:40;;;;;;;16.03;6.60;;;8.90;44.40;;;;;;5525698;25;20348;-63
2024/04/10 00:15:09;;;;;;;12.90;8.10;;;8.90;44.40;;;;;;5525329;25;20456;-63
2024/04/10 00:17:35;;;;;;;13.73;6.90;;;8.90;45.60;;;;;;5525329;25;20594;-63
2024/04/10 00:20:03;;;;;;;16.97;5.70;;;8.90;44.80;;;;;;5507404;25;20884;-64
2024/04/10 00:22:32;;;;;;;11.67;6.43;;;8.90;44.00;;;;;;5503496;26;20225;-64
2024/04/10 00:25:01;;;;;;;11.17;7.40;;;8.90;47.30;;;;;;5505583;26;20553;-64
2024/04/10 00:27:27;;;;;;;11.53;8.40;;;8.90;49.40;;;;;;5516213;25;20565;-63
2024/04/10 00:29:55;;;;;;;13.63;6.73;;;8.90;47.40;;;;;;5503112;26;20460;-63
2024/04/10 00:32:21;;;;;;;12.93;8.13;;;8.90;47.50;;;;;;5518341;25;20350;-63
2024/04/10 00:34:49;;;;;;;10.20;6.80;;;8.90;48.00;;;;;;5502603;26;20871;-63
2024/04/10 00:37:15;;;;;;;15.30;6.60;;;8.90;44.30;;;;;;5503913;25;20657;-63
2024/04/10 00:39:47;;;;;;;12.33;6.90;;;8.90;48.00;;;;;;5502633;26;20469;-63
2024/04/10 00:42:13;;;;;;;15.57;8.93;;;8.80;51.10;;;;;;5508470;26;20535;-63
2024/04/10 00:44:50;;;;;;;16.87;9.23;;;8.80;51.00;;;;;;5524923;25;20524;-64
2024/04/10 00:47:16;;;;;;;8.10;7.30;;;8.80;47.10;;;;;;5518663;25;20453;-64
2024/04/10 00:49:45;;;;;;;21.50;8.30;;;8.70;48.70;;;;;;5486363;26;20470;-63
2024/04/10 00:52:11;;;;;;;14.80;9.93;;;8.70;51.80;;;;;;5507727;25;20612;-64
2024/04/10 00:54:40;;;;;;;12.53;10.20;;;8.60;52.10;;;;;;5524567;25;20480;-64
2024/04/10 00:57:09;;;;;;;24.23;10.87;;;8.40;52.10;;;;;;5493963;25;20466;-64
2024/04/10 00:59:38;;;;;;;20.70;15.50;;;8.40;52.20;;;;;;5524220;25;20595;-62
2024/04/10 01:02:05;;;;;;;24.57;21.27;;;8.20;52.90;;;;;;5524626;25;20560;-64
2024/04/10 01:04:34;;;;;;;33.13;30.50;;;8.10;58.70;;;;;;5499857;25;20465;-63
2024/04/10 01:07:05;;;;;;;34.97;32.73;;;8.00;60.10;;;;;;5489530;26;21016;-64
2024/04/10 01:09:34;;;;;;;54.37;50.97;;;8.00;60.10;;;;;;5524761;25;20452;-64
2024/04/10 01:12:00;;;;;;;57.37;53.37;;;8.00;60.20;;;;;;5523291;25;20471;-63
2024/04/10 01:14:31;;;;;;;68.43;65.40;;;7.90;60.10;;;;;;5495881;26;20550;-64
2024/04/10 01:16:56;;;;;;;93.47;89.13;;;7.80;60.00;;;;;;5523136;25;20237;-63
2024/04/10 01:19:25;;;;;;;119.43;114.53;;;7.80;60.00;;;;;;5487521;26;20910;-64
2024/04/10 01:21:51;;;;;;;139.07;133.97;;;7.70;60.00;;;;;;5501870;26;20232;-63
2024/04/10 01:24:22;;;;;;;153.07;146.97;;;7.70;60.00;;;;;;5524105;25;20457;-63
2024/04/10 01:26:48;;;;;;;190.80;183.60;;;7.60;60.10;;;;;;5495225;25;20217;-63
2024/04/10 01:29:16;;;;;;;195.57;188.07;;;7.50;66.50;;;;;;5502110;26;20450;-64
2024/04/10 01:31:42;;;;;;;238.17;229.37;;;7.50;67.50;;;;;;5486673;26;20279;-63
2024/04/10 01:34:10;;;;;;;238.43;229.53;;;7.50;68.50;;;;;;5521383;26;20476;-63
2024/04/10 01:36:36;;;;;;;260.17;249.77;;;7.40;67.90;;;;;;5523861;25;20354;-63
2024/04/10 01:39:05;;;;;;;251.73;242.97;;;7.40;68.70;;;;;;5524206;25;20465;-63
2024/04/10 01:41:34;;;;;;;263.50;253.90;;;7.50;68.10;;;;;;5523079;25;20288;-63
2024/04/10 01:44:02;;;;;;;266.83;255.67;;;7.50;68.30;;;;;;5523724;25;20532;-64
2024/04/10 01:46:28;;;;;;;256.50;247.13;;;7.40;74.60;;;;;;5523899;25;20456;-62
2024/04/10 01:48:56;;;;;;;245.40;236.13;;;7.40;75.60;;;;;;5523137;25;20513;-63
2024/04/10 01:51:22;;;;;;;277.57;266.37;;;7.30;75.50;;;;;;5493871;26;20323;-64
2024/04/10 01:53:51;;;;;;;280.57;270.17;;;7.30;75.50;;;;;;5509365;25;20481;-63
2024/04/10 01:56:16;;;;;;;265.00;254.23;;;7.30;75.50;;;;;;5507963;26;20300;-63
2024/04/10 01:58:47;;;;;;;246.20;237.10;;;7.30;75.50;;;;;;5523554;25;20472;-64
2024/04/10 02:01:13;;;;;;;257.70;247.43;;;7.40;75.60;;;;;;5492676;25;20344;-64
2024/04/10 02:03:42;;;;;;;276.23;265.43;;;7.30;75.50;;;;;;5526916;25;20857;-64
2024/04/10 02:06:07;;;;;;;277.53;265.27;;;7.30;75.50;;;;;;5523686;25;20323;-64
2024/04/10 02:08:36;;;;;;;276.77;265.90;;;7.30;75.50;;;;;;5500704;26;20468;-63
2024/04/10 02:13:48;;;;;;;292.00;280.53;;;7.30;75.50;;;;;;5498819;25;20509;-63
2024/04/10 02:16:14;;;;;;;279.43;269.07;;;7.20;75.50;;;;;;5495885;26;20468;-63
2024/04/10 02:18:42;;;;;;;294.43;282.63;;;7.10;75.40;;;;;;5526946;25;20592;-62
2024/04/10 02:21:08;;;;;;;308.00;295.77;;;7.10;75.40;;;;;;5506995;25;20268;-63
2024/04/10 02:23:37;;;;;;;299.40;287.67;;;7.10;75.40;;;;;;5516040;26;20938;-63
2024/04/10 02:26:08;;;;;;;311.03;298.83;;;7.10;75.40;;;;;;5526837;25;20512;-63
2024/04/10 02:28:37;;;;;;;259.30;249.80;;;7.10;75.40;;;;;;5527059;25;20468;-63
2024/04/10 02:31:06;;;;;;;284.17;273.37;;;7.10;75.40;;;;;;5508210;25;20481;-63
2024/04/10 02:33:37;;;;;;;297.53;286.07;;;7.10;75.40;;;;;;5505155;26;20458;-64
2024/04/10 02:36:04;;;;;;;326.10;312.93;;;7.00;75.30;;;;;;5505000;26;20520;-62
2024/04/10 02:38:33;;;;;;;309.20;296.97;;;7.00;75.30;;;;;;5489638;26;20466;-63
2024/04/10 02:40:59;;;;;;;292.77;281.37;;;7.00;75.30;;;;;;5505864;26;20452;-64
2024/04/10 02:43:28;;;;;;;324.07;311.37;;;7.00;75.30;;;;;;5518641;25;20612;-63
2024/04/10 02:45:54;;;;;;;329.60;316.90;;;6.90;75.20;;;;;;5489893;26;20481;-63
2024/04/10 02:48:25;;;;;;;321.33;307.83;;;7.00;75.30;;;;;;5511882;26;20543;-63
2024/04/10 02:50:52;;;;;;;313.93;300.83;;;7.00;75.30;;;;;;5511235;25;20571;-64
2024/04/10 02:53:21;;;;;;;341.53;326.37;;;6.90;75.20;;;;;;5474750;26;20513;-63
2024/04/10 02:55:49;;;;;;;314.93;302.47;;;7.00;75.40;;;;;;5518981;26;20513;-64
2024/04/10 02:58:18;;;;;;;339.73;326.33;;;7.00;75.30;;;;;;5490821;25;20571;-63
2024/04/10 03:00:44;;;;;;;331.23;317.40;;;7.00;75.40;;;;;;5488953;26;20598;-64
2024/04/10 03:03:13;;;;;;;333.80;320.43;;;7.00;75.80;;;;;;5509138;26;20873;-63
2024/04/10 03:05:42;;;;;;;331.43;317.87;;;6.90;78.60;;;;;;5499751;25;20504;-63
2024/04/10 03:08:12;;;;;;;342.47;328.27;;;6.90;81.50;;;;;;5489630;26;20454;-63
2024/04/10 03:10:38;;;;;;;339.07;325.17;;;6.90;83.00;;;;;;5489274;26;20450;-64
2024/04/10 03:13:07;;;;;;;353.97;337.83;;;6.70;84.80;;;;;;5506776;26;20472;-63
2024/04/10 03:15:33;;;;;;;407.97;390.63;;;6.60;90.00;;;;;;5500817;26;20794;-64
2024/04/10 03:18:02;;;;;;;433.60;413.40;;;6.60;90.10;;;;;;5521556;26;20524;-64
2024/04/10 03:20:28;;;;;;;432.03;410.60;;;6.70;90.30;;;;;;5516938;25;20454;-63
2024/04/10 03:22:59;;;;;;;422.50;402.97;;;6.70;90.10;;;;;;5504789;26;20528;-63
2024/04/10 03:25:25;;;;;;;419.83;399.93;;;6.70;90.10;;;;;;5526247;25;20219;-64
2024/04/10 03:27:54;;;;;;;405.43;386.97;;;6.70;90.10;;;;;;5525979;25;20508;-62
2024/04/10 03:30:19;;;;;;;394.97;377.50;;;6.70;90.10;;;;;;5525543;26;20513;-63
2024/04/10 03:32:48;;;;;;;391.77;373.87;;;6.80;90.20;;;;;;5497351;25;20537;-64
2024/04/10 03:35:14;;;;;;;386.67;368.57;;;6.80;90.20;;;;;;5524884;26;20636;-63
2024/04/10 03:37:42;;;;;;;375.43;358.20;;;6.90;90.20;;;;;;5513844;25;20560;-63
2024/04/10 03:40:11;;;;;;;380.50;363.57;;;6.90;90.20;;;;;;5507579;26;20476;-63
2024/04/10 03:42:40;;;;;;;369.77;353.77;;;7.00;90.20;;;;;;5526105;25;20472;-64
2024/04/10 03:45:08;;;;;;;345.00;327.70;;;7.00;90.20;;;;;;5495497;25;20474;-63
2024/04/10 03:47:34;;;;;;;341.73;326.90;;;7.00;90.20;;;;;;5525796;25;20509;-63
2024/04/10 03:50:03;;;;;;;315.27;302.07;;;7.10;90.30;;;;;;5523203;25;20851;-64
2024/04/10 03:52:31;;;;;;;322.77;308.87;;;7.20;90.30;;;;;;5498793;26;20348;-63
2024/04/10 03:54:57;;;;;;;277.73;265.77;;;7.20;90.30;;;;;;5494952;25;20593;-64
2024/04/10 03:57:28;;;;;;;260.97;249.90;;;7.20;90.30;;;;;;5518101;25;20470;-64
2024/04/10 03:59:54;;;;;;;256.40;247.00;;;7.30;89.90;;;;;;5503847;26;20994;-63
2024/04/10 04:02:23;;;;;;;249.77;239.50;;;7.30;87.80;;;;;;5503408;25;20450;-64
2024/04/10 04:04:48;;;;;;;247.73;237.53;;;7.30;83.40;;;;;;5503931;26;20602;-63
2024/04/10 04:07:17;;;;;;;240.90;230.87;;;7.30;83.60;;;;;;5509578;26;20460;-64
2024/04/10 04:09:43;;;;;;;225.20;216.47;;;7.30;83.00;;;;;;5525281;25;20635;-64
2024/04/10 04:12:11;;;;;;;214.10;205.77;;;7.40;78.20;;;;;;5506419;25;20473;-63
2024/04/10 04:14:40;;;;;;;223.67;214.03;;;7.40;80.70;;;;;;5515285;26;20569;-63
2024/04/10 04:17:09;;;;;;;204.90;197.43;;;7.30;83.20;;;;;;5491487;25;20541;-63
2024/04/10 04:19:35;;;;;;;217.07;208.67;;;7.30;80.70;;;;;;5488254;26;20457;-63
2024/04/10 04:22:03;;;;;;;225.30;215.70;;;7.30;83.30;;;;;;5505158;25;20542;-63
2024/04/10 04:24:29;;;;;;;247.33;237.23;;;7.20;83.60;;;;;;5499358;25;20724;-64
2024/04/10 04:26:58;;;;;;;280.53;269.23;;;7.10;90.00;;;;;;5488774;26;20519;-64
2024/04/10 04:29:23;;;;;;;268.03;257.37;;;7.10;90.20;;;;;;5525002;25;20337;-63
2024/04/10 04:31:54;;;;;;;297.33;285.27;;;7.00;90.20;;;;;;5524733;25;20460;-63
2024/04/10 04:34:20;;;;;;;298.93;286.50;;;7.00;90.20;;;;;;5518310;25;20241;-64
2024/04/10 04:36:48;;;;;;;322.57;308.17;;;7.00;90.20;;;;;;5501697;26;20520;-64
2024/04/10 04:39:15;;;;;;;348.83;333.43;;;6.90;90.20;;;;;;5519918;25;20240;-63
2024/04/10 04:41:44;;;;;;;369.63;352.27;;;6.80;90.20;;;;;;5499633;26;20460;-63
2024/04/10 04:45:26;;;;;;;407.13;388.07;;;6.60;90.10;;;;;;5558784;25;20527;-63
2024/04/10 04:47:52;;;;;;;457.60;435.10;;;6.50;96.60;;;;;;5544216;25;20475;-64
2024/04/10 04:50:20;;;;;;;448.53;425.30;;;6.50;96.70;;;;;;5521949;25;20585;-64
2024/04/10 04:52:46;;;;;;;486.47;460.97;;;6.30;96.60;;;;;;5511791;25;20297;-63
2024/04/10 04:55:14;;;;;;;501.47;473.87;;;6.30;99.90;;;;;;5511259;25;20461;-64
2024/04/10 04:57:40;;;;;;;509.20;478.83;;;6.30;99.90;;;;;;5532606;25;20235;-64
2024/04/10 05:00:14;;;;;;;532.53;499.40;;;6.30;99.90;;;;;;5542868;25;20472;-63
2024/04/10 05:02:42;;;;;;;536.07;502.77;;;6.30;99.90;;;;;;5530497;25;20227;-64
2024/04/10 05:05:14;;;;;;;519.73;487.43;;;6.30;99.90;;;;;;5525876;25;20531;-64
2024/04/10 05:07:40;;;;;;;529.73;496.17;;;6.30;99.90;;;;;;5542890;25;20459;-66
2024/04/10 05:10:09;;;;;;;547.60;512.87;;;6.30;99.90;;;;;;5512316;25;20521;-64
2024/04/10 05:12:38;;;;;;;536.57;502.60;;;6.40;99.90;;;;;;5523912;25;20943;-64
2024/04/10 05:15:07;;;;;;;515.00;484.00;;;6.60;99.90;;;;;;5538937;25;20511;-64
2024/04/10 05:17:33;;;;;;;501.27;470.97;;;6.60;99.90;;;;;;5543346;25;20618;-64
2024/04/10 05:20:04;;;;;;;483.60;455.50;;;6.70;99.90;;;;;;5542522;25;20576;-64
2024/04/10 05:22:30;;;;;;;448.10;421.60;;;6.90;99.90;;;;;;5525059;25;21077;-64
2024/04/10 05:24:59;;;;;;;417.87;395.17;;;7.00;99.90;;;;;;5536349;25;20577;-64
2024/04/10 05:27:26;;;;;;;394.70;374.53;;;7.10;99.90;;;;;;5527747;25;20473;-62
2024/04/10 05:29:59;;;;;;;363.50;345.07;;;7.30;97.00;;;;;;5525254;25;20463;-64
2024/04/10 05:32:28;;;;;;;358.43;341.13;;;7.40;97.00;;;;;;5530004;25;20463;-64
2024/04/10 05:34:55;;;;;;;324.20;309.13;;;7.50;97.10;;;;;;5543299;25;20969;-64
2024/04/10 05:37:26;;;;;;;280.30;268.30;;;7.60;94.60;;;;;;5543582;25;20551;-64
2024/04/10 05:40:05;;;;;;;269.73;257.63;;;7.70;90.70;;;;;;5526917;25;20558;-64
2024/04/10 05:42:35;;;;;;;256.00;245.00;;;7.70;90.50;;;;;;5524503;25;20584;-63
2024/04/10 05:45:02;;;;;;;244.53;234.93;;;7.80;90.60;;;;;;5539762;25;20580;-64
2024/04/10 05:47:31;;;;;;;246.30;236.70;;;7.90;90.60;;;;;;5505775;25;21133;-66
2024/04/10 05:49:57;;;;;;;238.43;229.40;;;8.00;90.60;;;;;;5536332;25;21123;-64
2024/04/10 05:52:28;;;;;;;208.53;200.17;;;8.10;90.70;;;;;;5505538;25;20468;-64
2024/04/10 05:54:54;;;;;;;182.80;175.47;;;8.20;90.70;;;;;;5501187;25;20537;-63
2024/04/10 05:57:24;;;;;;;158.77;152.47;;;8.30;90.50;;;;;;5512242;26;20448;-64
2024/04/10 05:59:51;;;;;;;127.50;121.50;;;8.40;88.10;;;;;;5526299;25;20583;-64
2024/04/10 06:02:20;;;;;;;109.43;104.60;;;8.60;76.70;;;;;;5526777;25;20464;-64
2024/04/10 06:04:45;;;;;;;90.87;86.80;;;8.70;76.80;;;;;;5502643;25;20579;-64
2024/04/10 06:07:14;;;;;;;54.83;51.57;;;8.80;76.90;;;;;;5525025;25;20472;-64
2024/04/10 06:09:42;;;;;;;48.53;44.97;;;8.90;76.90;;;;;;5526400;25;20465;-64
2024/04/10 06:12:11;;;;;;;41.53;38.57;;;9.00;76.90;;;;;;5526824;25;20456;-64
2024/04/10 06:14:37;;;;;;;35.40;31.90;;;9.10;76.80;;;;;;5526613;25;20577;-64
2024/04/10 06:17:06;;;;;;;27.30;24.50;;;9.20;69.40;;;;;;5510182;25;20458;-64
2024/04/10 06:19:32;;;;;;;22.97;20.90;;;9.30;69.40;;;;;;5505885;25;20947;-64
2024/04/10 06:22:00;;;;;;;20.53;13.73;;;9.50;69.60;;;;;;5523099;25;20468;-64
2024/04/10 06:24:26;;;;;;;12.17;10.43;;;9.50;61.50;;;;;;5489126;26;20457;-64
2024/04/10 06:26:57;;;;;;;13.07;9.83;;;9.60;61.60;;;;;;5488588;26;20466;-63
2024/04/10 06:29:23;;;;;;;12.50;7.07;;;9.70;62.50;;;;;;5511839;26;20457;-64
2024/04/10 06:31:52;;;;;;;12.90;8.80;;;9.60;61.60;;;;;;5510934;25;20890;-64
2024/04/10 06:34:17;;;;;;;16.27;5.73;;;9.70;61.70;;;;;;5510141;26;20357;-64
2024/04/10 06:36:46;;;;;;;17.10;5.80;;;9.70;61.60;;;;;;5525940;25;20464;-64
2024/04/10 06:39:12;;;;;;;16.00;7.23;;;9.80;61.70;;;;;;5525396;25;20723;-64
2024/04/10 06:41:40;;;;;;;11.40;5.33;;;9.80;61.70;;;;;;5524855;25;20832;-64
2024/04/10 06:44:09;;;;;;;20.93;5.53;;;10.00;60.90;;;;;;5491214;25;20596;-64
2024/04/10 06:46:38;;;;;;;13.73;5.00;;;10.10;60.90;;;;;;5490987;26;20449;-64
2024/04/10 06:49:04;;;;;;;11.93;3.87;;;10.20;56.40;;;;;;5499430;26;20470;-64
2024/04/10 06:51:32;;;;;;;11.97;4.63;;;10.20;52.80;;;;;;5515333;25;20814;-64
2024/04/10 06:53:58;;;;;;;15.83;4.80;;;10.20;52.70;;;;;;5524212;25;20291;-64
2024/04/10 06:56:27;;;;;;;13.53;4.77;;;10.30;52.80;;;;;;5508398;25;20616;-67
2024/04/10 06:58:54;;;;;;;9.30;3.63;;;10.20;51.10;;;;;;5493977;26;20310;-64
2024/04/10 07:01:25;;;;;;;13.63;5.40;;;10.10;52.50;;;;;;5509989;26;20466;-64
2024/04/10 07:03:51;;;;;;;9.43;3.67;;;10.00;49.30;;;;;;5489907;25;20542;-63
2024/04/10 07:06:20;;;;;;;11.63;4.63;;;10.10;52.50;;;;;;5507587;25;20448;-62
2024/04/10 07:08:47;;;;;;;8.53;4.30;;;10.40;52.90;;;;;;5522574;25;20592;-63
2024/04/10 07:11:19;;;;;;;22.13;4.60;;;10.60;45.00;;;;;;5525896;25;20531;-64
2024/04/10 07:13:45;;;;;;;14.30;3.93;;;10.90;44.70;;;;;;5522532;25;20467;-64
2024/04/10 07:16:14;;;;;;;15.97;4.23;;;11.00;44.80;;;;;;5515840;25;21126;-64
2024/04/10 07:18:44;;;;;;;10.30;3.80;;;11.20;45.40;;;;;;5516002;26;20813;-64
2024/04/10 07:21:14;;;;;;;14.60;4.10;;;11.30;44.60;;;;;;5516459;25;20506;-64
2024/04/10 07:23:41;;;;;;;32.83;5.13;;;11.50;36.60;;;;;;5515926;25;20468;-63
2024/04/10 07:26:12;;;;;;;14.10;4.47;;;11.60;36.50;;;;;;5490556;26;20533;-63
2024/04/10 07:28:40;;;;;;;13.20;4.40;;;11.70;36.70;;;;;;5513091;25;21002;-64
2024/04/10 07:31:09;;;;;;;11.73;4.10;;;11.90;32.90;;;;;;5524988;25;20460;-64
2024/04/10 07:33:35;;;;;;;18.63;4.80;;;11.90;36.10;;;;;;5498721;25;20465;-63
2024/04/10 07:36:18;;;;;;;20.90;4.80;;;12.20;37.50;;;;;;5519296;26;21031;-64
2024/04/10 07:38:44;;;;;;;17.57;4.50;;;12.40;28.70;;;;;;5525094;25;20459;-64
2024/04/10 07:41:14;;;;;;;12.03;4.10;;;12.70;28.90;;;;;;5515159;25;21118;-64
2024/04/10 07:43:40;;;;;;;17.13;5.23;;;12.70;28.90;;;;;;5510328;25;20465;-64
2024/04/10 07:46:10;;;;;;;14.83;5.70;;;12.80;29.00;;;;;;5492096;26;20470;-64
2024/04/10 07:48:37;;;;;;;13.90;4.43;;;12.80;28.90;;;;;;5506854;25;20524;-64
2024/04/10 07:51:07;;;;;;;15.67;4.87;;;12.70;24.30;;;;;;5521165;26;20461;-66
2024/04/10 07:53:36;;;;;;;13.90;3.97;;;12.50;21.70;;;;;;5512729;25;20520;-64
2024/04/10 07:56:07;;;;;;;14.30;4.63;;;12.50;22.00;;;;;;5523035;25;20468;-64
2024/04/10 07:58:33;;;;;;;14.73;4.33;;;12.70;28.90;;;;;;5513499;26;20500;-64
2024/04/10 08:01:02;;;;;;;12.07;3.57;;;12.80;23.30;;;;;;5524564;25;20573;-64
2024/04/10 08:03:29;;;;;;;16.47;5.23;;;12.80;21.90;;;;;;5525155;25;20524;-64
2024/04/10 08:05:58;;;;;;;11.17;3.70;;;12.80;21.80;;;;;;5525158;25;20502;-64
2024/04/10 08:08:25;;;;;;;13.60;3.73;;;13.00;22.30;;;;;;5525454;25;20911;-64
2024/04/10 08:11:01;;;;;;;14.60;3.83;;;13.00;22.50;;;;;;5524568;25;20508;-64
2024/04/10 08:13:27;;;;;;;18.83;3.73;;;13.00;22.00;;;;;;5511975;26;21138;-63
2024/04/10 08:15:58;;;;;;;15.90;5.40;;;13.10;21.90;;;;;;5524936;25;20467;-64
2024/04/10 08:18:25;;;;;;;12.30;3.60;;;13.20;21.20;;;;;;5501096;25;20458;-64
2024/04/10 08:21:00;;;;;;;16.83;3.90;;;13.20;16.00;;;;;;5502246;26;20885;-64
2024/04/10 08:23:27;;;;;;;14.07;4.03;;;13.20;19.60;;;;;;5503206;26;20561;-64
2024/04/10 08:25:56;;;;;;;14.83;4.53;;;13.30;22.20;;;;;;5487682;26;20512;-62
2024/04/10 08:28:25;;;;;;;11.27;3.47;;;13.30;14.90;;;;;;5488023;26;20458;-64
2024/04/10 08:30:54;;;;;;;12.57;4.50;;;13.60;15.10;;;;;;5502904;26;20511;-64
2024/04/10 08:33:20;;;;;;;20.27;5.53;;;13.60;15.10;;;;;;5510251;26;20876;-65
2024/04/10 08:35:54;;;;;;;13.10;3.20;;;13.80;15.20;;;;;;5524646;25;20523;-64
2024/04/10 08:38:21;;;;;;;9.07;3.17;;;14.10;15.50;;;;;;5524621;25;20222;-64
2024/04/10 08:40:54;;;;;;;12.30;2.73;;;14.50;8.60;;;;;;5524170;25;20460;-64
2024/04/10 08:43:21;;;;;;;15.07;3.47;;;14.50;8.20;;;;;;5509767;26;20503;-64
2024/04/10 08:45:52;;;;;;;14.80;3.53;;;14.80;8.50;;;;;;5524721;25;20516;-64
2024/04/10 08:48:19;;;;;;;13.70;3.17;;;15.00;7.70;;;;;;5509590;26;20617;-64
2024/04/10 08:50:49;;;;;;;17.53;3.90;;;15.00;1.00;;;;;;5523945;25;20508;-64
2024/04/10 08:53:17;;;;;;;14.93;3.20;;;15.30;1.20;;;;;;5493710;25;21083;-64
2024/04/10 08:55:46;;;;;;;12.10;3.27;;;15.10;1.00;;;;;;5524483;25;20507;-64
2024/04/10 08:58:13;;;;;;;9.40;3.40;;;15.10;1.00;;;;;;5519816;25;20509;-64
2024/04/10 09:00:45;;;;;;;14.67;2.70;;;15.50;1.30;;;;;;5498635;26;20701;-65
2024/04/10 09:03:14;;;;;;;9.60;2.83;;;16.60;2.10;;;;;;5523829;25;20472;-64
2024/04/10 09:05:43;;;;;;;13.80;2.97;;;16.90;1.00;;;;;;5524194;25;20476;-65
2024/04/10 09:08:10;;;;;;;8.67;2.00;;;16.40;1.00;;;;;;5524042;25;20468;-64
2024/04/10 09:10:39;;;;;;;9.70;2.87;;;16.20;1.00;;;;;;5504007;25;20456;-67
2024/04/10 09:13:06;;;;;;;13.50;2.30;;;15.80;1.00;;;;;;5514756;26;20458;-65
2024/04/10 09:15:35;;;;;;;14.00;2.40;;;16.70;1.00;;;;;;5514892;25;21062;-67
2024/04/10 09:18:01;;;;;;;12.50;4.77;;;17.60;1.00;;;;;;5518053;26;20452;-64
2024/04/10 09:20:32;;;;;;;13.40;3.40;;;18.70;1.00;;;;;;5521014;25;21046;-65
2024/04/10 09:23:04;;;;;;;11.00;2.77;;;18.80;1.00;;;;;;5507216;25;20268;-65
2024/04/10 09:25:33;;;;;;;13.50;4.17;;;18.70;1.00;;;;;;5487106;26;20512;-65
2024/04/10 09:28:00;;;;;;;10.13;3.30;;;18.00;1.00;;;;;;5487068;26;20564;-65
2024/04/10 09:30:28;;;;;;;13.53;3.13;;;17.70;1.00;;;;;;5487192;26;20523;-65
2024/04/10 09:32:54;;;;;;;9.40;2.90;;;17.70;1.00;;;;;;5490680;26;20587;-65
2024/04/10 09:35:24;;;;;;;12.10;3.60;;;17.80;1.00;;;;;;5490498;26;20509;-65
2024/04/10 09:37:55;;;;;;;8.90;2.70;;;18.40;1.00;;;;;;5505193;26;20503;-65
2024/04/10 09:40:25;;;;;;;14.50;3.17;;;18.20;1.00;;;;;;5512137;26;20456;-65
2024/04/10 09:42:58;;;;;;;9.30;3.90;;;17.60;1.00;;;;;;5512557;25;20833;-64
2024/04/10 09:45:29;;;;;;;10.37;2.87;;;17.00;1.00;;;;;;5513888;26;20472;-65
2024/04/10 09:47:56;;;;;;;10.80;2.80;;;17.40;1.00;;;;;;5497077;25;20894;-65
2024/04/10 09:50:31;;;;;;;7.20;2.50;;;18.10;1.00;;;;;;5527408;25;20539;-65
2024/04/10 09:53:00;;;;;;;11.10;3.77;;;18.40;1.00;;;;;;5526683;25;21039;-65
2024/04/10 09:55:31;;;;;;;13.30;2.90;;;18.30;1.00;;;;;;5490462;26;20465;-65
2024/04/10 09:57:58;;;;;;;12.00;3.80;;;18.40;1.00;;;;;;5506759;26;20574;-65
2024/04/10 10:00:27;;;;;;;8.33;2.60;;;17.80;1.00;;;;;;5503718;25;20513;-64
2024/04/10 10:03:03;;;;;;;8.93;3.47;;;17.40;1.00;;;;;;5490710;26;20470;-65
2024/04/10 10:05:31;;;;;;;8.17;3.07;;;16.50;1.00;;;;;;5514692;26;20459;-64
2024/04/10 10:08:06;;;;;;;9.53;2.93;;;15.60;1.00;;;;;;5495311;25;20458;-64
2024/04/10 10:10:45;;;;;;;9.03;3.10;;;15.20;1.00;;;;;;5514925;26;20467;-64
2024/04/10 10:13:11;;;;;;;13.00;2.63;;;15.40;1.00;;;;;;5504928;25;20525;-67
2024/04/10 10:15:40;;;;;;;15.17;2.73;;;15.90;1.00;;;;;;5525415;26;20527;-65
2024/04/10 10:18:06;;;;;;;8.37;2.63;;;16.40;1.00;;;;;;5526202;25;20465;-63
2024/04/10 10:20:35;;;;;;;8.77;3.13;;;15.80;1.00;;;;;;5510626;25;20523;-64
2024/04/10 10:23:05;;;;;;;11.50;2.83;;;15.40;1.00;;;;;;5510646;25;20516;-65
2024/04/10 10:25:36;;;;;;;9.93;3.07;;;15.40;1.00;;;;;;5502385;25;20501;-65
2024/04/10 10:28:06;;;;;;;13.33;3.27;;;16.50;1.00;;;;;;5524172;25;20855;-66
2024/04/10 10:30:35;;;;;;;16.40;3.27;;;16.20;1.00;;;;;;5512427;26;20857;-66
2024/04/10 10:33:02;;;;;;;14.00;4.70;;;16.10;1.00;;;;;;5500616;25;20462;-66
2024/04/10 10:35:31;;;;;;;12.30;3.47;;;16.60;1.00;;;;;;5526188;25;20550;-66
2024/04/10 10:37:57;;;;;;;12.60;2.63;;;17.00;1.00;;;;;;5525406;25;20539;-71
2024/04/10 10:40:28;;;;;;;13.00;2.03;;;17.90;1.00;;;;;;5520223;26;20521;-71
2024/04/10 10:43:04;;;;;;;9.20;2.00;;;18.60;1.00;;;;;;5516143;25;20528;-69
2024/04/10 10:45:33;;;;;;;13.30;3.17;;;19.10;1.00;;;;;;5529928;25;20523;-69
2024/04/10 10:48:00;;;;;;;12.77;2.63;;;18.70;1.00;;;;;;5511747;25;20929;-69
2024/04/10 10:50:28;;;;;;;12.03;2.90;;;18.60;1.00;;;;;;5505928;26;20448;-67
2024/04/10 10:52:55;;;;;;;13.43;2.90;;;18.20;1.00;;;;;;5520824;25;20524;-66
2024/04/10 10:55:24;;;;;;;9.70;2.67;;;18.20;1.00;;;;;;5519155;25;20518;-66
2024/04/10 10:58:03;;;;;;;10.60;3.20;;;18.40;1.00;;;;;;5526267;25;20582;-67
2024/04/10 11:00:34;;;;;;;9.00;2.93;;;18.50;1.00;;;;;;5513831;26;20869;-69
2024/04/10 11:03:05;;;;;;;10.43;2.97;;;18.80;1.00;;;;;;5517534;25;20458;-69
2024/04/10 11:05:34;;;;;;;14.27;3.07;;;19.40;1.00;;;;;;5518651;25;20460;-69
2024/04/10 11:08:00;;;;;;;10.60;3.30;;;19.20;1.00;;;;;;5519263;25;20806;-68
2024/04/10 11:10:29;;;;;;;13.90;3.60;;;19.60;1.00;;;;;;5510069;25;20540;-68
2024/04/10 11:12:59;;;;;;;7.67;2.60;;;19.70;1.00;;;;;;5519348;26;20530;-66
2024/04/10 11:15:31;;;;;;;7.50;2.10;;;19.10;1.00;;;;;;5516799;25;20474;-66
2024/04/10 11:18:01;;;;;;;10.30;2.50;;;19.50;1.00;;;;;;5525762;25;20468;-66
2024/04/10 11:20:30;;;;;;;9.63;2.47;;;20.00;1.00;;;;;;5522288;25;20509;-66
2024/04/10 11:22:58;;;;;;;7.37;2.60;;;20.20;1.00;;;;;;5516937;25;20484;-66
2024/04/10 11:25:28;;;;;;;13.40;3.30;;;19.20;1.00;;;;;;5522449;26;20448;-66
2024/04/10 11:27:55;;;;;;;9.60;2.80;;;18.90;1.00;;;;;;5525434;25;20961;-65
2024/04/10 11:30:24;;;;;;;10.30;2.70;;;19.40;1.00;;;;;;5510175;25;20458;-70
2024/04/10 11:32:52;;;;;;;11.20;2.90;;;19.80;1.00;;;;;;5481335;26;20464;-68
2024/04/10 11:35:21;;;;;;;9.23;2.80;;;20.40;1.00;;;;;;5492608;25;20509;-70
2024/04/10 11:37:49;;;;;;;8.80;2.73;;;21.30;1.00;;;;;;5496455;26;20479;-70
2024/04/10 11:40:19;;;;;;;11.90;3.70;;;20.40;1.00;;;;;;5512024;26;21140;-70
2024/04/10 11:42:45;;;;;;;11.37;2.80;;;21.10;1.00;;;;;;5518920;25;20468;-69
2024/04/10 11:45:14;;;;;;;6.67;2.20;;;20.10;1.00;;;;;;5523473;26;20536;-69
2024/04/10 11:47:41;;;;;;;9.97;2.87;;;20.90;1.00;;;;;;5519096;25;20909;-69
2024/04/10 11:50:15;;;;;;;11.23;2.87;;;21.50;1.00;;;;;;5524531;25;20536;-69
2024/04/10 11:52:42;;;;;;;11.70;3.00;;;22.40;1.00;;;;;;5515478;26;20457;-69
2024/04/10 11:55:11;;;;;;;11.97;3.20;;;23.70;1.00;;;;;;5518385;25;20464;-69
2024/04/10 11:57:36;;;;;;;13.03;2.90;;;23.30;1.00;;;;;;5523690;25;20509;-66
2024/04/10 12:00:07;;;;;;;9.07;3.00;;;22.80;1.00;;;;;;5507260;25;20457;-66
2024/04/10 12:02:33;;;;;;;8.40;2.50;;;21.50;1.00;;;;;;5507312;26;20290;-65
2024/04/10 12:05:05;;;;;;;12.33;4.13;;;20.60;1.00;;;;;;5515062;25;20460;-68
2024/04/10 12:07:34;;;;;;;9.17;2.90;;;21.00;1.00;;;;;;5516978;25;20689;-70
2024/04/10 12:10:03;;;;;;;8.23;2.17;;;21.10;1.00;;;;;;5505532;25;20572;-68
2024/04/10 12:12:30;;;;;;;9.80;2.67;;;21.10;1.00;;;;;;5520855;25;20608;-67
2024/04/10 12:14:58;;;;;;;9.43;2.20;;;22.30;1.00;;;;;;5515246;25;20581;-67
2024/04/10 12:17:24;;;;;;;10.37;2.17;;;22.30;1.00;;;;;;5521321;25;21038;-67
2024/04/10 12:19:52;;;;;;;7.03;2.23;;;22.40;1.00;;;;;;5509528;26;20456;-66
2024/04/10 12:22:19;;;;;;;13.83;3.57;;;23.00;1.00;;;;;;5509698;25;20280;-66
2024/04/10 12:24:50;;;;;;;8.60;2.07;;;23.90;1.00;;;;;;5505810;26;20462;-66
2024/04/10 12:27:15;;;;;;;7.50;2.17;;;23.70;1.00;;;;;;5502214;25;20518;-67
2024/04/10 12:29:46;;;;;;;9.97;2.30;;;23.50;1.00;;;;;;5502472;26;20889;-67
2024/04/10 12:32:12;;;;;;;6.27;1.67;;;23.90;1.00;;;;;;5519437;25;20331;-66
2024/04/10 12:34:41;;;;;;;10.90;2.23;;;23.70;1.00;;;;;;5517923;26;20806;-67
2024/04/10 12:39:56;;;;;;;6.87;2.17;;;25.10;1.00;;;;;;5517786;26;21058;-68
2024/04/10 12:42:25;;;;;;;8.40;2.27;;;25.70;1.00;;;;;;5507192;26;20606;-68
2024/04/10 12:44:53;;;;;;;7.70;1.97;;;25.70;1.00;;;;;;5519740;25;20488;-67
2024/04/10 12:47:19;;;;;;;8.70;1.93;;;25.10;1.00;;;;;;5507169;26;20523;-68